Time;durP1;ratioP1;P1;durP2;ratioP2;P2;SDS_P1;SDS_P2;PMS_P1;PMS_P2;Temp;Humidity;BMP_temperature;BMP_pressure;BME280_temperature;BME280_humidity;BME280_pressure;Samples;Min_cycle;Max_cycle;Signal;HPM_P1;HPM_P2
2023/01/10 06:05:09;;;;;;;14.00;8.30;;;;;;;-6.05;80.41;100523.61;101874;1299;601101;-69
2023/01/10 06:07:36;;;;;;;9.00;5.30;;;;;;;-6.20;79.29;100533.97;104361;1269;62568;-67
2023/01/10 06:10:07;;;;;;;16.00;8.40;;;;;;;-6.28;79.37;100543.58;104814;1275;61247;-70
2023/01/10 06:12:34;;;;;;;8.60;5.80;;;;;;;-6.33;78.87;100543.30;104693;1268;72512;-70
2023/01/10 06:15:02;;;;;;;20.30;8.60;;;;;;;-6.35;79.21;100547.80;104624;1275;68503;-69
2023/01/10 06:17:29;;;;;;;7.30;4.80;;;;;;;-6.33;79.68;100547.41;104380;1272;73065;-69
2023/01/10 06:19:56;;;;;;;9.60;6.40;;;;;;;-6.35;79.21;100527.05;104056;1273;623143;-70
2023/01/10 06:22:42;;;;;;;12.80;8.50;;;;;;;-6.39;78.87;100532.92;104743;1271;61247;-68
2023/01/10 06:25:10;;;;;;;15.70;7.80;;;;;;;-6.42;78.53;100545.88;104620;1267;74757;-66
2023/01/10 06:27:40;;;;;;;13.70;9.10;;;;;;;-6.40;78.58;100549.73;104707;1273;70445;-68
2023/01/10 06:30:09;;;;;;;13.70;8.20;;;;;;;-6.40;78.47;100546.98;104514;1272;73617;-67
2023/01/10 06:32:35;;;;;;;18.20;9.50;;;;;;;-6.41;77.76;100545.70;104994;1267;62443;-69
2023/01/10 06:35:03;;;;;;;10.60;7.50;;;;;;;-6.41;77.40;100553.17;105407;1261;63207;-67
2023/01/10 06:37:29;;;;;;;15.40;7.90;;;;;;;-6.41;77.13;100547.25;105022;1260;74499;-68
2023/01/10 06:39:56;;;;;;;12.50;7.40;;;;;;;-6.42;77.00;100551.84;104981;1274;68896;-66
2023/01/10 06:42:23;;;;;;;15.90;7.70;;;;;;;-6.44;76.88;100552.36;105030;1264;74520;-68
2023/01/10 06:44:50;;;;;;;13.00;5.50;;;;;;;-6.48;77.02;100560.88;105394;1265;62881;-70
2023/01/10 06:47:18;;;;;;;24.50;8.80;;;;;;;-6.48;77.30;100568.17;104998;1260;60410;-71
2023/01/10 06:49:44;;;;;;;16.90;10.40;;;;;;;-6.44;77.24;100551.67;105275;1268;74259;-70
2023/01/10 06:52:11;;;;;;;15.70;8.30;;;;;;;-6.45;76.88;100558.36;105040;1265;66470;-68
2023/01/10 06:54:40;;;;;;;7.90;4.90;;;;;;;-6.43;76.78;100569.36;105332;1266;74406;-70
2023/01/10 06:57:07;;;;;;;15.30;7.60;;;;;;;-6.43;76.41;100569.90;104701;1265;1002885;-70
2023/01/10 06:59:34;;;;;;;15.30;8.70;;;;;;;-6.46;75.93;100573.94;105347;1265;62691;-69
2023/01/10 07:02:01;;;;;;;17.40;8.70;;;;;;;-6.49;75.90;100572.64;105247;1265;72438;-71
2023/01/10 07:04:28;;;;;;;19.60;7.80;;;;;;;-6.52;75.45;100579.63;105244;1266;67547;-70
2023/01/10 07:06:55;;;;;;;11.90;5.80;;;;;;;-6.52;75.49;100576.52;105424;1264;73940;-69
2023/01/10 07:09:22;;;;;;;12.10;7.70;;;;;;;-6.52;75.23;100587.89;105445;1274;60511;-71
2023/01/10 07:11:49;;;;;;;10.30;6.10;;;;;;;-6.55;74.66;100592.77;105377;1265;59773;-70
2023/01/10 07:14:16;;;;;;;15.40;8.70;;;;;;;-6.57;74.15;100594.77;105261;1266;73544;-71
2023/01/10 07:16:42;;;;;;;14.10;5.80;;;;;;;-6.58;73.85;100601.78;105249;1269;69172;-70
2023/01/10 07:19:12;;;;;;;15.60;7.10;;;;;;;-6.60;73.99;100606.63;105378;1265;75310;-66
2023/01/10 07:21:39;;;;;;;9.60;5.80;;;;;;;-6.59;73.76;100605.13;105416;1264;62398;-68
2023/01/10 07:24:07;;;;;;;15.80;6.90;;;;;;;-6.60;73.27;100604.52;104932;1261;59524;-71
2023/01/10 07:26:34;;;;;;;24.60;7.90;;;;;;;-6.61;73.22;100607.05;105562;1264;75854;-70
2023/01/10 07:29:02;;;;;;;18.10;6.80;;;;;;;-6.59;72.85;100616.83;105189;1261;67676;-68
2023/01/10 07:31:29;;;;;;;12.60;6.50;;;;;;;-6.57;72.91;100617.60;105460;1263;73640;-70
2023/01/10 07:33:56;;;;;;;15.50;8.80;;;;;;;-6.53;73.38;100622.31;105412;1267;64463;-70
2023/01/10 07:36:23;;;;;;;10.50;6.10;;;;;;;-6.48;73.03;100616.02;105418;1261;61084;-71
2023/01/10 07:38:50;;;;;;;14.80;7.70;;;;;;;-6.48;72.30;100609.02;105000;1264;73919;-68
2023/01/10 07:41:17;;;;;;;10.00;7.20;;;;;;;-6.53;72.08;100615.30;105047;1259;70865;-69
2023/01/10 07:43:44;;;;;;;14.20;6.40;;;;;;;-6.51;72.10;100618.48;105468;1270;74415;-70
2023/01/10 07:46:11;;;;;;;16.10;8.90;;;;;;;-6.49;71.94;100622.64;105404;1265;61662;-71
2023/01/10 07:48:40;;;;;;;15.10;8.30;;;;;;;-6.43;71.78;100624.86;105468;1260;61192;-73
2023/01/10 07:51:07;;;;;;;13.80;7.90;;;;;;;-6.42;71.29;100619.72;105447;1267;75780;-71
2023/01/10 07:53:34;;;;;;;12.40;7.30;;;;;;;-6.40;71.30;100622.69;105460;1260;69185;-70
2023/01/10 12:11:30;;;;;;;24.10;11.40;;;;;;;-3.69;63.54;100632.98;102970;1295;600910;-74
2023/01/10 12:13:59;;;;;;;22.00;8.50;;;;;;;-3.72;63.38;100624.17;104830;1270;62732;-77
2023/01/10 12:16:30;;;;;;;10.50;7.30;;;;;;;-3.73;63.43;100625.14;104817;1274;59403;-75
2023/01/10 12:19:01;;;;;;;16.40;8.50;;;;;;;-3.74;63.16;100624.55;104923;1269;74858;-74
2023/01/10 12:21:38;;;;;;;12.20;8.60;;;;;;;-3.76;63.35;100617.51;104871;1269;69889;-79
2023/01/10 12:24:11;;;;;;;15.00;9.00;;;;;;;-3.77;63.25;100630.01;104338;1275;619406;-74
2023/01/10 12:26:38;;;;;;;18.60;7.60;;;;;;;-3.78;63.45;100628.72;105725;1257;61738;-73
2023/01/10 12:29:07;;;;;;;15.30;9.50;;;;;;;-3.78;63.36;100634.48;105778;1257;60615;-75
2023/01/10 12:31:35;;;;;;;20.80;8.80;;;;;;;-3.74;63.52;100638.40;105834;1257;73470;-75
2023/01/10 12:34:06;;;;;;;16.40;9.50;;;;;;;-3.71;63.55;100642.33;105669;1262;69800;-75
2023/01/10 12:36:55;;;;;;;15.40;9.10;;;;;;;-3.70;63.64;100636.94;105011;1262;1003072;-78
2023/01/10 12:39:25;;;;;;;18.80;9.90;;;;;;;-3.68;63.41;100647.28;105776;1258;60101;-71
2023/01/10 12:44:56;;;;;;;15.00;9.70;;;;;;;-3.64;62.85;100658.49;105746;1256;75786;-73
2023/01/10 12:47:23;;;;;;;17.30;8.10;;;;;;;-3.65;62.39;100667.88;105565;1260;67243;-73
2023/01/10 12:49:55;;;;;;;17.10;7.50;;;;;;;-3.64;62.43;100676.37;105062;1256;1003669;-73
2023/01/10 12:52:47;;;;;;;13.30;6.90;;;;;;;-3.62;62.37;100678.13;105709;1257;60741;-79
2023/01/10 12:55:16;;;;;;;22.70;10.10;;;;;;;-3.61;62.04;100684.73;105670;1262;60968;-77
2023/01/10 12:57:47;;;;;;;38.90;10.60;;;;;;;-3.59;61.99;100687.81;105834;1262;72677;-76
2023/01/10 13:00:18;;;;;;;15.20;8.40;;;;;;;-3.58;61.97;100683.17;105764;1256;67888;-76
2023/01/10 13:02:45;;;;;;;15.90;8.10;;;;;;;-3.58;61.85;100680.73;105786;1257;74464;-79
2023/01/10 13:05:18;;;;;;;23.10;10.40;;;;;;;-3.59;61.82;100683.08;104847;1257;1003473;-74
2023/01/10 13:07:46;;;;;;;14.60;9.80;;;;;;;-3.58;61.76;100685.27;105482;1260;59659;-72
2023/01/10 13:10:19;;;;;;;19.50;12.40;;;;;;;-3.56;61.62;100688.46;105639;1257;73211;-75
2023/01/10 13:12:48;;;;;;;;;;;;;;;-3.53;61.49;100682.94;107182;1257;69319;-70
2023/01/10 13:15:33;;;;;;;15.40;9.20;;;;;;;-3.53;61.18;100674.83;109010;1256;74505;-70
2023/01/10 13:18:14;;;;;;;11.40;7.00;;;;;;;-3.53;60.39;100678.23;109070;1256;62689;-70
2023/01/10 13:20:41;;;;;;;19.90;9.10;;;;;;;-3.55;60.16;100681.48;108945;1256;58790;-66
2023/01/10 13:23:14;;;;;;;15.30;9.30;;;;;;;-3.51;60.44;100685.95;108918;1256;71941;-72
2023/01/10 13:25:41;;;;;;;;;;;;;;;-3.50;60.15;100683.05;108954;1257;69179;-70
2023/01/10 13:28:18;;;;;;;25.50;11.80;;;;;;;-3.49;59.94;100685.78;109022;1257;73852;-73
2023/01/10 13:30:50;;;;;;;18.80;9.30;;;;;;;-3.50;59.83;100681.08;108883;1259;61396;-74
2023/01/10 13:33:21;;;;;;;14.40;8.40;;;;;;;-3.52;59.33;100681.59;109017;1256;59664;-76
2023/01/10 13:35:48;;;;;;;17.40;8.20;;;;;;;-3.52;58.75;100684.10;108922;1256;74098;-72
2023/01/10 13:38:45;;;;;;;20.00;8.10;;;;;;;-3.52;58.79;100686.33;109032;1257;66538;-70
2023/01/10 13:43:17;;;;;;;20.90;8.00;;;;;;;-3.51;58.56;100683.48;108957;1256;75260;-71
2023/01/10 13:44:03;;;;;;;19.20;8.90;;;;;;;-3.51;58.28;100688.75;109067;1257;60190;-72
2023/01/10 13:46:30;;;;;;;23.50;10.50;;;;;;;-3.52;58.44;100692.30;109100;1257;61570;-72
2023/01/10 13:48:59;;;;;;;19.80;8.50;;;;;;;-3.51;58.47;100684.36;109032;1256;73124;-71
2023/01/10 13:51:26;;;;;;;23.70;8.60;;;;;;;-3.53;58.01;100693.77;109042;1256;68857;-71
2023/01/10 13:54:01;;;;;;;19.00;10.30;;;;;;;-3.54;57.55;100683.70;108250;1258;1002178;-71
2023/01/10 13:56:33;;;;;;;18.80;8.80;;;;;;;-3.54;57.19;100684.04;108962;1256;59461;-72
2023/01/10 14:04:38;;;;;;;24.00;14.30;;;;;;;-3.43;57.80;100685.58;109016;1256;68731;-72
2023/01/10 14:07:17;;;;;;;29.90;13.10;;;;;;;-3.40;57.80;100688.85;109119;1256;73655;-67
2023/01/10 14:09:44;;;;;;;20.90;10.30;;;;;;;-3.38;58.02;100687.00;109156;1256;62580;-70
2023/01/10 14:12:22;;;;;;;30.50;12.90;;;;;;;-3.37;57.87;100686.92;109081;1256;58235;-69
2023/01/10 14:15:04;;;;;;;25.10;12.40;;;;;;;-3.37;57.92;100686.59;108359;1256;1002813;-80
2023/01/10 14:17:33;;;;;;;43.20;15.00;;;;;;;-3.37;57.95;100682.73;108245;1256;1002482;-79
2023/01/10 14:20:05;;;;;;;26.90;12.20;;;;;;;-3.36;57.69;100690.06;109079;1256;71958;-81
2023/01/10 14:22:36;;;;;;;28.40;12.40;;;;;;;-3.34;57.82;100687.89;109018;1256;61010;-72
2023/01/10 14:25:19;;;;;;;36.30;10.80;;;;;;;-3.32;57.54;100698.92;109064;1256;58909;-70
2023/01/10 14:27:47;;;;;;;;;;;;;;;-3.30;57.45;100702.20;109144;1256;72833;-71
2023/01/10 14:30:28;;;;;;;33.00;13.20;;;;;;;-3.29;57.07;100705.17;109083;1256;69514;-71
2023/01/10 14:32:55;;;;;;;33.60;13.40;;;;;;;-3.29;56.86;100700.08;108298;1256;1002273;-71
2023/01/10 14:35:31;;;;;;;28.00;14.00;;;;;;;-3.28;57.01;100709.14;109018;1256;62305;-72
2023/01/10 14:37:58;;;;;;;26.90;15.80;;;;;;;-3.28;56.97;100709.09;109131;1256;59020;-71
2023/01/10 14:40:31;;;;;;;31.10;15.00;;;;;;;-3.26;57.08;100703.50;109051;1256;75090;-79
2023/01/10 14:43:01;;;;;;;34.50;13.50;;;;;;;-3.25;56.57;100703.60;108396;1257;1002914;-71
2023/01/10 14:45:33;;;;;;;29.80;13.50;;;;;;;-3.25;56.80;100701.80;108994;1256;72106;-77
2023/01/10 14:48:36;;;;;;;34.10;15.20;;;;;;;-3.22;56.97;100698.73;109115;1257;60429;-77
2023/01/10 14:51:07;;;;;;;22.30;12.40;;;;;;;-3.23;56.52;100701.61;109088;1256;59067;-77
2023/01/10 14:53:34;;;;;;;17.50;12.00;;;;;;;-3.23;56.76;100689.57;109118;1256;71708;-74
2023/01/10 14:56:01;;;;;;;20.70;11.10;;;;;;;-3.23;56.54;100698.16;109053;1257;67060;-74
2023/01/10 14:58:28;;;;;;;22.60;12.10;;;;;;;-3.24;56.67;100698.89;108374;1257;1002065;-73
2023/01/10 15:00:54;;;;;;;38.70;15.40;;;;;;;-3.24;56.28;100705.05;109053;1257;61527;-74
2023/01/10 15:03:23;;;;;;;35.80;16.70;;;;;;;-3.22;56.67;100703.36;109135;1257;61002;-72
2023/01/10 15:05:53;;;;;;;21.50;10.80;;;;;;;-3.21;56.72;100701.59;108997;1257;72151;-74
2023/01/10 15:08:29;;;;;;;26.00;12.20;;;;;;;-3.19;55.93;100714.08;109010;1257;70476;-74
2023/01/10 15:11:01;;;;;;;20.90;10.10;;;;;;;-3.18;56.05;100715.36;109131;1257;73028;-74
2023/01/10 15:13:29;;;;;;;24.60;9.40;;;;;;;-3.16;55.72;100721.48;109013;1256;60937;-73
2023/01/10 15:15:55;;;;;;;18.90;9.20;;;;;;;-3.14;55.68;100717.14;109034;1257;60026;-78
2023/01/10 15:18:34;;;;;;;20.00;11.90;;;;;;;-3.11;55.36;100717.19;108225;1257;1002753;-75
2023/01/10 15:21:02;;;;;;;18.90;10.10;;;;;;;-3.09;55.39;100710.50;108957;1257;67278;-73
2023/01/10 15:23:35;;;;;;;17.50;11.20;;;;;;;-3.07;55.40;100712.53;108915;1257;72851;-71
2023/01/10 15:26:05;;;;;;;18.70;10.40;;;;;;;-3.09;55.10;100704.79;109005;1258;61516;-70
2023/01/10 15:28:34;;;;;;;26.30;9.40;;;;;;;-3.11;54.91;100710.21;109042;1257;60308;-69
2023/01/10 15:31:05;;;;;;;17.10;8.20;;;;;;;-3.09;54.55;100712.80;109006;1262;73508;-71
2023/01/10 15:33:33;;;;;;;12.40;6.00;;;;;;;-3.06;54.47;100717.66;109040;1257;69134;-70
2023/01/10 15:36:03;;;;;;;9.40;6.10;;;;;;;-3.06;53.89;100728.72;108944;1257;72579;-69
2023/01/10 15:38:33;;;;;;;14.90;7.80;;;;;;;-3.03;54.05;100728.63;109071;1257;60438;-70
2023/01/10 15:41:01;;;;;;;13.10;7.80;;;;;;;-3.01;54.25;100722.80;108971;1257;61114;-69
2023/01/10 15:43:29;;;;;;;16.80;7.20;;;;;;;-2.97;53.93;100722.17;109057;1257;73799;-69
2023/01/10 15:45:59;;;;;;;11.50;6.70;;;;;;;-2.97;54.13;100718.77;109104;1257;66437;-70
2023/01/10 15:48:37;;;;;;;18.60;8.20;;;;;;;-2.97;53.50;100716.32;109091;1259;74430;-70
2023/01/10 15:51:26;;;;;;;14.00;8.10;;;;;;;-2.98;53.64;100714.84;108247;1257;1002206;-69
2023/01/10 15:54:02;;;;;;;14.60;7.30;;;;;;;-2.96;53.89;100715.56;109084;1257;60969;-69
2023/01/10 15:56:31;;;;;;;8.20;6.20;;;;;;;-2.96;53.36;100710.58;109086;1257;73040;-68
2023/01/10 15:58:58;;;;;;;21.90;8.10;;;;;;;-2.94;53.52;100715.85;109130;1257;67634;-68
2023/01/10 16:01:25;;;;;;;16.70;7.90;;;;;;;-2.91;53.36;100721.58;109027;1257;71496;-69
2023/01/10 23:16:20;;;;;;;5.70;4.50;;;;;;;-6.56;78.84;100954.66;102445;1294;601062;-70
2023/01/10 23:18:48;;;;;;;5.20;4.40;;;;;;;-6.58;78.44;100954.09;104805;1272;62430;-71
2023/01/10 23:21:15;;;;;;;7.90;4.50;;;;;;;-6.56;77.54;100949.42;104717;1274;61376;-70
2023/01/10 23:23:42;;;;;;;8.50;4.90;;;;;;;-6.56;76.74;100941.35;104683;1270;72765;-70
2023/01/10 23:26:10;;;;;;;9.50;3.70;;;;;;;-6.53;76.51;100934.38;105244;1267;70233;-69
2023/01/10 23:28:39;;;;;;;8.10;4.00;;;;;;;-6.49;75.86;100937.03;104883;1269;73960;-70
2023/01/10 23:31:07;;;;;;;14.80;5.50;;;;;;;-6.46;75.26;100942.73;104652;1260;61538;-70
2023/01/10 23:33:34;;;;;;;8.10;5.00;;;;;;;-6.43;75.23;100949.34;104985;1265;61576;-70
2023/01/10 23:36:01;;;;;;;8.40;4.20;;;;;;;-6.38;75.27;100954.73;104978;1268;71655;-69
2023/01/10 23:38:28;;;;;;;8.10;4.80;;;;;;;-6.36;75.75;100957.36;104963;1262;70639;-70
2023/01/10 23:40:55;;;;;;;6.60;3.60;;;;;;;-6.39;75.63;100954.64;105426;1265;73961;-68
2023/01/10 23:43:22;;;;;;;3.70;3.40;;;;;;;-6.40;75.28;100965.17;105025;1260;62005;-70
2023/01/10 23:45:49;;;;;;;23.00;5.70;;;;;;;-6.44;75.16;100966.14;105057;1265;59645;-69
2023/01/10 23:48:16;;;;;;;22.80;8.70;;;;;;;-6.45;75.16;100969.04;104961;1262;75002;-69
2023/01/10 23:50:48;;;;;;;17.90;11.50;;;;;;;-6.49;75.86;100973.98;105334;1261;68291;-67
2023/01/10 23:53:16;;;;;;;20.50;15.50;;;;;;;-6.49;75.79;100975.26;104996;1264;73239;-67
2023/01/10 23:55:43;;;;;;;22.30;15.80;;;;;;;-6.44;76.39;100964.20;105030;1267;60791;-69
2023/01/10 23:58:09;;;;;;;33.00;15.40;;;;;;;-6.42;76.59;100970.16;105012;1260;59664;-69
